sensor_id;sensor_type;location;lat;lon;timestamp;P1;durP1;ratioP1;P2;durP2;ratioP2
11524;SDS011;5819;49.648;8.330;2024-02-28T00:01:48;39.72;;;28.33;;
11524;SDS011;5819;49.648;8.330;2024-02-28T00:04:16;40.00;;;29.75;;
11524;SDS011;5819;49.648;8.330;2024-02-28T00:06:44;39.92;;;29.92;;
11524;SDS011;5819;49.648;8.330;2024-02-28T00:09:13;38.08;;;28.52;;
11524;SDS011;5819;49.648;8.330;2024-02-28T00:11:43;39.55;;;29.27;;
11524;SDS011;5819;49.648;8.330;2024-02-28T00:14:12;41.80;;;30.65;;
11524;SDS011;5819;49.648;8.330;2024-02-28T00:16:40;39.70;;;28.92;;
11524;SDS011;5819;49.648;8.330;2024-02-28T00:19:08;40.85;;;30.23;;
11524;SDS011;5819;49.648;8.330;2024-02-28T00:21:37;41.70;;;29.83;;
11524;SDS011;5819;49.648;8.330;2024-02-28T00:24:06;38.45;;;29.23;;
11524;SDS011;5819;49.648;8.330;2024-02-28T00:26:35;38.33;;;28.90;;
11524;SDS011;5819;49.648;8.330;2024-02-28T00:29:04;41.53;;;30.55;;
11524;SDS011;5819;49.648;8.330;2024-02-28T00:31:32;42.40;;;29.15;;
11524;SDS011;5819;49.648;8.330;2024-02-28T00:34:00;39.72;;;28.42;;
11524;SDS011;5819;49.648;8.330;2024-02-28T00:36:28;38.92;;;29.08;;
11524;SDS011;5819;49.648;8.330;2024-02-28T00:39:13;41.95;;;29.35;;
11524;SDS011;5819;49.648;8.330;2024-02-28T00:41:41;43.38;;;31.20;;
11524;SDS011;5819;49.648;8.330;2024-02-28T00:44:10;40.83;;;29.77;;
11524;SDS011;5819;49.648;8.330;2024-02-28T00:46:38;39.53;;;29.50;;
11524;SDS011;5819;49.648;8.330;2024-02-28T00:49:06;41.35;;;29.77;;
11524;SDS011;5819;49.648;8.330;2024-02-28T00:51:34;42.00;;;29.80;;
11524;SDS011;5819;49.648;8.330;2024-02-28T00:54:04;40.55;;;28.67;;
11524;SDS011;5819;49.648;8.330;2024-02-28T00:56:32;42.22;;;30.42;;
11524;SDS011;5819;49.648;8.330;2024-02-28T00:59:00;42.83;;;30.38;;
11524;SDS011;5819;49.648;8.330;2024-02-28T01:01:30;43.50;;;31.15;;
11524;SDS011;5819;49.648;8.330;2024-02-28T01:03:58;41.10;;;29.67;;
11524;SDS011;5819;49.648;8.330;2024-02-28T01:06:26;41.90;;;30.55;;
11524;SDS011;5819;49.648;8.330;2024-02-28T01:08:54;42.53;;;29.92;;
11524;SDS011;5819;49.648;8.330;2024-02-28T01:11:22;45.28;;;31.27;;
11524;SDS011;5819;49.648;8.330;2024-02-28T01:13:50;47.97;;;32.08;;
11524;SDS011;5819;49.648;8.330;2024-02-28T01:16:18;45.60;;;31.83;;
11524;SDS011;5819;49.648;8.330;2024-02-28T01:18:47;44.03;;;30.88;;
11524;SDS011;5819;49.648;8.330;2024-02-28T01:21:15;46.95;;;32.28;;
11524;SDS011;5819;49.648;8.330;2024-02-28T01:23:43;47.28;;;34.28;;
11524;SDS011;5819;49.648;8.330;2024-02-28T01:26:10;45.80;;;30.65;;
11524;SDS011;5819;49.648;8.330;2024-02-28T01:28:38;49.95;;;33.15;;
11524;SDS011;5819;49.648;8.330;2024-02-28T01:31:06;48.63;;;34.05;;
11524;SDS011;5819;49.648;8.330;2024-02-28T01:33:34;48.80;;;33.08;;
11524;SDS011;5819;49.648;8.330;2024-02-28T01:36:04;47.78;;;33.55;;
11524;SDS011;5819;49.648;8.330;2024-02-28T01:38:33;49.50;;;33.72;;
11524;SDS011;5819;49.648;8.330;2024-02-28T01:41:01;49.22;;;35.10;;
11524;SDS011;5819;49.648;8.330;2024-02-28T01:43:31;50.13;;;34.55;;
11524;SDS011;5819;49.648;8.330;2024-02-28T01:45:59;50.65;;;34.40;;
11524;SDS011;5819;49.648;8.330;2024-02-28T01:48:31;52.35;;;35.05;;
11524;SDS011;5819;49.648;8.330;2024-02-28T01:51:00;52.40;;;33.63;;
11524;SDS011;5819;49.648;8.330;2024-02-28T01:53:29;52.88;;;35.45;;
11524;SDS011;5819;49.648;8.330;2024-02-28T01:55:58;52.00;;;35.70;;
11524;SDS011;5819;49.648;8.330;2024-02-28T01:58:26;48.88;;;33.63;;
11524;SDS011;5819;49.648;8.330;2024-02-28T02:00:54;53.00;;;35.08;;
11524;SDS011;5819;49.648;8.330;2024-02-28T02:03:23;52.60;;;33.50;;
11524;SDS011;5819;49.648;8.330;2024-02-28T02:05:51;53.60;;;36.30;;
11524;SDS011;5819;49.648;8.330;2024-02-28T02:08:18;50.38;;;35.22;;
11524;SDS011;5819;49.648;8.330;2024-02-28T02:10:47;51.40;;;34.50;;
11524;SDS011;5819;49.648;8.330;2024-02-28T02:13:16;50.28;;;35.45;;
11524;SDS011;5819;49.648;8.330;2024-02-28T02:15:44;50.22;;;34.53;;
11524;SDS011;5819;49.648;8.330;2024-02-28T02:18:11;52.53;;;35.42;;
11524;SDS011;5819;49.648;8.330;2024-02-28T02:20:44;50.85;;;35.30;;
11524;SDS011;5819;49.648;8.330;2024-02-28T02:23:18;56.95;;;36.47;;
11524;SDS011;5819;49.648;8.330;2024-02-28T02:25:46;50.35;;;34.95;;
11524;SDS011;5819;49.648;8.330;2024-02-28T02:28:15;52.28;;;35.45;;
11524;SDS011;5819;49.648;8.330;2024-02-28T02:30:43;55.45;;;35.78;;
11524;SDS011;5819;49.648;8.330;2024-02-28T02:33:11;50.80;;;33.72;;
11524;SDS011;5819;49.648;8.330;2024-02-28T02:35:39;52.17;;;34.85;;
11524;SDS011;5819;49.648;8.330;2024-02-28T02:38:07;49.10;;;34.13;;
11524;SDS011;5819;49.648;8.330;2024-02-28T02:40:37;51.92;;;35.10;;
11524;SDS011;5819;49.648;8.330;2024-02-28T02:43:04;53.88;;;34.78;;
11524;SDS011;5819;49.648;8.330;2024-02-28T02:45:32;49.47;;;33.90;;
11524;SDS011;5819;49.648;8.330;2024-02-28T02:48:00;52.50;;;35.05;;
11524;SDS011;5819;49.648;8.330;2024-02-28T02:50:28;53.60;;;34.78;;
11524;SDS011;5819;49.648;8.330;2024-02-28T02:52:56;54.50;;;34.58;;
11524;SDS011;5819;49.648;8.330;2024-02-28T02:55:23;51.25;;;34.58;;
11524;SDS011;5819;49.648;8.330;2024-02-28T02:57:53;52.88;;;34.85;;
11524;SDS011;5819;49.648;8.330;2024-02-28T03:00:22;52.38;;;34.75;;
11524;SDS011;5819;49.648;8.330;2024-02-28T03:02:49;55.58;;;34.75;;
11524;SDS011;5819;49.648;8.330;2024-02-28T03:05:17;52.63;;;35.60;;
11524;SDS011;5819;49.648;8.330;2024-02-28T03:07:45;49.38;;;33.25;;
11524;SDS011;5819;49.648;8.330;2024-02-28T03:10:14;51.45;;;34.55;;
11524;SDS011;5819;49.648;8.330;2024-02-28T03:12:42;52.95;;;35.28;;
11524;SDS011;5819;49.648;8.330;2024-02-28T03:15:11;51.22;;;35.08;;
11524;SDS011;5819;49.648;8.330;2024-02-28T03:17:40;52.17;;;34.45;;
11524;SDS011;5819;49.648;8.330;2024-02-28T03:20:08;51.55;;;34.38;;
11524;SDS011;5819;49.648;8.330;2024-02-28T03:22:38;53.67;;;34.93;;
11524;SDS011;5819;49.648;8.330;2024-02-28T03:25:06;53.72;;;33.78;;
11524;SDS011;5819;49.648;8.330;2024-02-28T03:27:35;54.75;;;34.65;;
11524;SDS011;5819;49.648;8.330;2024-02-28T03:30:03;53.83;;;34.83;;
11524;SDS011;5819;49.648;8.330;2024-02-28T03:32:32;49.53;;;33.47;;
11524;SDS011;5819;49.648;8.330;2024-02-28T03:35:00;51.67;;;33.20;;
11524;SDS011;5819;49.648;8.330;2024-02-28T03:37:29;55.80;;;36.50;;
11524;SDS011;5819;49.648;8.330;2024-02-28T03:39:57;51.80;;;34.30;;
11524;SDS011;5819;49.648;8.330;2024-02-28T03:42:25;56.30;;;35.05;;
11524;SDS011;5819;49.648;8.330;2024-02-28T03:44:53;54.17;;;34.13;;
11524;SDS011;5819;49.648;8.330;2024-02-28T03:47:21;53.95;;;34.38;;
11524;SDS011;5819;49.648;8.330;2024-02-28T03:49:50;54.03;;;34.33;;
11524;SDS011;5819;49.648;8.330;2024-02-28T03:52:18;54.95;;;34.47;;
11524;SDS011;5819;49.648;8.330;2024-02-28T03:54:46;52.47;;;34.85;;
11524;SDS011;5819;49.648;8.330;2024-02-28T03:57:14;54.88;;;35.78;;
11524;SDS011;5819;49.648;8.330;2024-02-28T03:59:42;56.50;;;36.97;;
11524;SDS011;5819;49.648;8.330;2024-02-28T04:02:10;53.03;;;34.38;;
11524;SDS011;5819;49.648;8.330;2024-02-28T04:04:38;56.38;;;36.50;;
11524;SDS011;5819;49.648;8.330;2024-02-28T04:07:07;56.22;;;35.60;;
11524;SDS011;5819;49.648;8.330;2024-02-28T04:09:35;56.75;;;35.35;;
11524;SDS011;5819;49.648;8.330;2024-02-28T04:12:03;59.33;;;36.28;;
11524;SDS011;5819;49.648;8.330;2024-02-28T04:14:30;58.58;;;36.33;;
11524;SDS011;5819;49.648;8.330;2024-02-28T04:16:59;57.70;;;36.75;;
11524;SDS011;5819;49.648;8.330;2024-02-28T04:19:26;59.80;;;36.10;;
11524;SDS011;5819;49.648;8.330;2024-02-28T04:21:54;54.28;;;35.65;;
11524;SDS011;5819;49.648;8.330;2024-02-28T04:24:24;57.03;;;35.97;;
11524;SDS011;5819;49.648;8.330;2024-02-28T04:26:52;60.95;;;37.28;;
11524;SDS011;5819;49.648;8.330;2024-02-28T04:29:20;53.40;;;34.53;;
11524;SDS011;5819;49.648;8.330;2024-02-28T04:31:48;57.75;;;37.58;;
11524;SDS011;5819;49.648;8.330;2024-02-28T04:34:16;56.20;;;35.55;;
11524;SDS011;5819;49.648;8.330;2024-02-28T04:36:44;58.15;;;35.65;;
11524;SDS011;5819;49.648;8.330;2024-02-28T04:39:11;57.85;;;34.85;;
11524;SDS011;5819;49.648;8.330;2024-02-28T04:41:41;60.40;;;36.45;;
11524;SDS011;5819;49.648;8.330;2024-02-28T04:44:09;56.03;;;35.83;;
11524;SDS011;5819;49.648;8.330;2024-02-28T04:46:37;56.60;;;34.17;;
11524;SDS011;5819;49.648;8.330;2024-02-28T04:49:05;58.40;;;36.22;;
11524;SDS011;5819;49.648;8.330;2024-02-28T04:51:33;54.78;;;34.78;;
11524;SDS011;5819;49.648;8.330;2024-02-28T04:54:01;60.47;;;36.50;;
11524;SDS011;5819;49.648;8.330;2024-02-28T04:56:28;59.72;;;35.83;;
11524;SDS011;5819;49.648;8.330;2024-02-28T04:58:58;60.97;;;37.10;;
11524;SDS011;5819;49.648;8.330;2024-02-28T05:01:25;58.10;;;36.67;;
11524;SDS011;5819;49.648;8.330;2024-02-28T05:03:54;54.63;;;34.17;;
11524;SDS011;5819;49.648;8.330;2024-02-28T05:06:23;55.75;;;34.80;;
11524;SDS011;5819;49.648;8.330;2024-02-28T05:08:51;58.72;;;34.53;;
11524;SDS011;5819;49.648;8.330;2024-02-28T05:11:19;61.75;;;37.05;;
11524;SDS011;5819;49.648;8.330;2024-02-28T05:13:47;58.80;;;36.30;;
11524;SDS011;5819;49.648;8.330;2024-02-28T05:16:16;58.17;;;34.72;;
11524;SDS011;5819;49.648;8.330;2024-02-28T05:18:44;60.58;;;36.90;;
11524;SDS011;5819;49.648;8.330;2024-02-28T05:21:12;63.28;;;36.90;;
11524;SDS011;5819;49.648;8.330;2024-02-28T05:23:40;57.78;;;34.47;;
11524;SDS011;5819;49.648;8.330;2024-02-28T05:26:09;59.40;;;36.50;;
11524;SDS011;5819;49.648;8.330;2024-02-28T05:28:36;60.67;;;37.42;;
11524;SDS011;5819;49.648;8.330;2024-02-28T05:31:18;59.60;;;36.63;;
11524;SDS011;5819;49.648;8.330;2024-02-28T05:33:50;60.08;;;37.78;;
11524;SDS011;5819;49.648;8.330;2024-02-28T05:36:18;59.47;;;36.10;;
11524;SDS011;5819;49.648;8.330;2024-02-28T05:38:46;60.13;;;36.70;;
11524;SDS011;5819;49.648;8.330;2024-02-28T05:41:15;60.33;;;37.13;;
11524;SDS011;5819;49.648;8.330;2024-02-28T05:43:44;61.63;;;37.38;;
11524;SDS011;5819;49.648;8.330;2024-02-28T05:46:12;63.03;;;37.03;;
11524;SDS011;5819;49.648;8.330;2024-02-28T05:48:41;60.80;;;37.83;;
11524;SDS011;5819;49.648;8.330;2024-02-28T05:51:10;62.45;;;37.28;;
11524;SDS011;5819;49.648;8.330;2024-02-28T05:53:38;61.23;;;36.53;;
11524;SDS011;5819;49.648;8.330;2024-02-28T05:56:06;64.05;;;37.25;;
11524;SDS011;5819;49.648;8.330;2024-02-28T05:58:40;67.47;;;38.17;;
11524;SDS011;5819;49.648;8.330;2024-02-28T06:01:09;60.78;;;35.85;;
11524;SDS011;5819;49.648;8.330;2024-02-28T06:03:37;64.17;;;36.93;;
11524;SDS011;5819;49.648;8.330;2024-02-28T06:06:07;63.27;;;38.37;;
11524;SDS011;5819;49.648;8.330;2024-02-28T06:08:37;65.83;;;38.67;;
11524;SDS011;5819;49.648;8.330;2024-02-28T06:11:05;64.68;;;37.58;;
11524;SDS011;5819;49.648;8.330;2024-02-28T06:13:33;65.97;;;39.43;;
11524;SDS011;5819;49.648;8.330;2024-02-28T06:16:01;68.22;;;39.85;;
11524;SDS011;5819;49.648;8.330;2024-02-28T06:18:30;67.73;;;39.63;;
11524;SDS011;5819;49.648;8.330;2024-02-28T06:21:00;69.72;;;39.92;;
11524;SDS011;5819;49.648;8.330;2024-02-28T06:23:29;66.27;;;38.43;;
11524;SDS011;5819;49.648;8.330;2024-02-28T06:25:57;60.63;;;36.65;;
11524;SDS011;5819;49.648;8.330;2024-02-28T06:28:25;66.13;;;39.13;;
11524;SDS011;5819;49.648;8.330;2024-02-28T06:30:53;67.32;;;41.15;;
11524;SDS011;5819;49.648;8.330;2024-02-28T06:33:21;65.85;;;38.30;;
11524;SDS011;5819;49.648;8.330;2024-02-28T06:35:49;65.53;;;38.60;;
11524;SDS011;5819;49.648;8.330;2024-02-28T06:38:17;65.93;;;38.42;;
11524;SDS011;5819;49.648;8.330;2024-02-28T06:40:46;62.92;;;37.70;;
11524;SDS011;5819;49.648;8.330;2024-02-28T06:43:14;61.70;;;37.45;;
11524;SDS011;5819;49.648;8.330;2024-02-28T06:45:42;62.97;;;37.35;;
11524;SDS011;5819;49.648;8.330;2024-02-28T06:48:10;64.27;;;38.20;;
11524;SDS011;5819;49.648;8.330;2024-02-28T06:50:38;64.57;;;37.38;;
11524;SDS011;5819;49.648;8.330;2024-02-28T06:53:06;59.77;;;36.87;;
11524;SDS011;5819;49.648;8.330;2024-02-28T06:55:35;65.15;;;38.65;;
11524;SDS011;5819;49.648;8.330;2024-02-28T06:58:05;60.40;;;37.17;;
11524;SDS011;5819;49.648;8.330;2024-02-28T07:00:33;62.67;;;37.60;;
11524;SDS011;5819;49.648;8.330;2024-02-28T07:03:00;61.25;;;36.63;;
11524;SDS011;5819;49.648;8.330;2024-02-28T07:05:28;61.10;;;37.33;;
11524;SDS011;5819;49.648;8.330;2024-02-28T07:07:56;62.63;;;36.47;;
11524;SDS011;5819;49.648;8.330;2024-02-28T07:10:24;63.00;;;37.03;;
11524;SDS011;5819;49.648;8.330;2024-02-28T07:12:52;63.38;;;36.10;;
11524;SDS011;5819;49.648;8.330;2024-02-28T07:15:21;60.47;;;36.30;;
11524;SDS011;5819;49.648;8.330;2024-02-28T07:17:49;61.30;;;36.25;;
11524;SDS011;5819;49.648;8.330;2024-02-28T07:20:17;60.28;;;36.15;;
11524;SDS011;5819;49.648;8.330;2024-02-28T07:22:45;59.50;;;36.38;;
11524;SDS011;5819;49.648;8.330;2024-02-28T07:25:14;62.25;;;36.33;;
11524;SDS011;5819;49.648;8.330;2024-02-28T07:27:43;59.13;;;36.95;;
11524;SDS011;5819;49.648;8.330;2024-02-28T07:30:11;59.25;;;36.42;;
11524;SDS011;5819;49.648;8.330;2024-02-28T07:32:41;59.72;;;36.80;;
11524;SDS011;5819;49.648;8.330;2024-02-28T07:35:09;62.53;;;37.42;;
11524;SDS011;5819;49.648;8.330;2024-02-28T07:37:39;63.30;;;36.35;;
11524;SDS011;5819;49.648;8.330;2024-02-28T07:40:07;59.83;;;37.22;;
11524;SDS011;5819;49.648;8.330;2024-02-28T07:42:35;62.60;;;37.13;;
11524;SDS011;5819;49.648;8.330;2024-02-28T07:45:04;63.03;;;36.53;;
11524;SDS011;5819;49.648;8.330;2024-02-28T07:47:35;62.97;;;36.42;;
11524;SDS011;5819;49.648;8.330;2024-02-28T07:50:06;61.03;;;36.00;;
11524;SDS011;5819;49.648;8.330;2024-02-28T07:52:35;59.05;;;36.78;;
11524;SDS011;5819;49.648;8.330;2024-02-28T07:55:04;60.13;;;37.28;;
11524;SDS011;5819;49.648;8.330;2024-02-28T07:57:33;56.33;;;35.42;;
11524;SDS011;5819;49.648;8.330;2024-02-28T08:00:01;61.28;;;37.20;;
11524;SDS011;5819;49.648;8.330;2024-02-28T08:02:37;57.05;;;34.92;;
11524;SDS011;5819;49.648;8.330;2024-02-28T08:05:07;61.72;;;36.10;;
11524;SDS011;5819;49.648;8.330;2024-02-28T08:07:36;59.33;;;35.55;;
11524;SDS011;5819;49.648;8.330;2024-02-28T08:10:04;59.70;;;35.38;;
11524;SDS011;5819;49.648;8.330;2024-02-28T08:12:33;60.05;;;36.08;;
11524;SDS011;5819;49.648;8.330;2024-02-28T08:15:01;62.45;;;36.80;;
11524;SDS011;5819;49.648;8.330;2024-02-28T08:17:29;57.78;;;34.65;;
11524;SDS011;5819;49.648;8.330;2024-02-28T08:19:57;59.08;;;35.47;;
11524;SDS011;5819;49.648;8.330;2024-02-28T08:22:27;56.65;;;33.80;;
11524;SDS011;5819;49.648;8.330;2024-02-28T08:24:55;56.65;;;33.28;;
11524;SDS011;5819;49.648;8.330;2024-02-28T08:27:23;55.60;;;34.08;;
11524;SDS011;5819;49.648;8.330;2024-02-28T08:29:52;53.45;;;34.22;;
11524;SDS011;5819;49.648;8.330;2024-02-28T08:32:20;56.65;;;35.10;;
11524;SDS011;5819;49.648;8.330;2024-02-28T08:34:48;52.63;;;34.40;;
11524;SDS011;5819;49.648;8.330;2024-02-28T08:37:16;55.22;;;33.47;;
11524;SDS011;5819;49.648;8.330;2024-02-28T08:39:46;54.33;;;34.38;;
11524;SDS011;5819;49.648;8.330;2024-02-28T08:42:15;56.20;;;33.00;;
11524;SDS011;5819;49.648;8.330;2024-02-28T08:44:43;55.65;;;33.72;;
11524;SDS011;5819;49.648;8.330;2024-02-28T08:47:14;50.42;;;32.25;;
11524;SDS011;5819;49.648;8.330;2024-02-28T08:49:42;49.70;;;32.10;;
11524;SDS011;5819;49.648;8.330;2024-02-28T08:52:10;53.60;;;32.95;;
11524;SDS011;5819;49.648;8.330;2024-02-28T08:54:38;49.92;;;32.67;;
11524;SDS011;5819;49.648;8.330;2024-02-28T08:57:08;46.95;;;29.85;;
11524;SDS011;5819;49.648;8.330;2024-02-28T08:59:37;43.55;;;29.83;;
11524;SDS011;5819;49.648;8.330;2024-02-28T09:02:06;48.42;;;31.38;;
11524;SDS011;5819;49.648;8.330;2024-02-28T09:04:35;47.97;;;31.63;;
11524;SDS011;5819;49.648;8.330;2024-02-28T09:07:02;48.75;;;31.95;;
11524;SDS011;5819;49.648;8.330;2024-02-28T09:09:31;44.72;;;29.48;;
11524;SDS011;5819;49.648;8.330;2024-02-28T09:12:04;45.22;;;29.77;;
11524;SDS011;5819;49.648;8.330;2024-02-28T09:14:34;41.75;;;28.98;;
11524;SDS011;5819;49.648;8.330;2024-02-28T09:17:02;43.42;;;30.20;;
11524;SDS011;5819;49.648;8.330;2024-02-28T09:19:31;40.95;;;27.40;;
11524;SDS011;5819;49.648;8.330;2024-02-28T09:21:58;45.28;;;29.17;;
11524;SDS011;5819;49.648;8.330;2024-02-28T09:24:26;40.83;;;27.92;;
11524;SDS011;5819;49.648;8.330;2024-02-28T09:26:54;38.67;;;27.38;;
11524;SDS011;5819;49.648;8.330;2024-02-28T09:29:22;43.55;;;29.83;;
11524;SDS011;5819;49.648;8.330;2024-02-28T09:31:52;42.28;;;28.92;;
11524;SDS011;5819;49.648;8.330;2024-02-28T09:34:20;40.42;;;28.25;;
11524;SDS011;5819;49.648;8.330;2024-02-28T09:36:48;42.45;;;30.25;;
11524;SDS011;5819;49.648;8.330;2024-02-28T09:39:17;39.08;;;27.35;;
11524;SDS011;5819;49.648;8.330;2024-02-28T09:41:46;38.35;;;27.45;;
11524;SDS011;5819;49.648;8.330;2024-02-28T09:44:16;39.00;;;27.75;;
11524;SDS011;5819;49.648;8.330;2024-02-28T09:46:45;41.38;;;28.95;;
11524;SDS011;5819;49.648;8.330;2024-02-28T09:49:16;38.50;;;27.45;;
11524;SDS011;5819;49.648;8.330;2024-02-28T09:51:47;43.10;;;26.85;;
11524;SDS011;5819;49.648;8.330;2024-02-28T09:54:17;40.03;;;28.63;;
11524;SDS011;5819;49.648;8.330;2024-02-28T09:56:46;39.80;;;27.40;;
11524;SDS011;5819;49.648;8.330;2024-02-28T09:59:15;41.22;;;27.58;;
11524;SDS011;5819;49.648;8.330;2024-02-28T10:01:51;41.10;;;28.52;;
11524;SDS011;5819;49.648;8.330;2024-02-28T10:04:25;39.92;;;28.02;;
11524;SDS011;5819;49.648;8.330;2024-02-28T10:06:55;42.97;;;29.00;;
11524;SDS011;5819;49.648;8.330;2024-02-28T10:09:25;41.83;;;27.77;;
11524;SDS011;5819;49.648;8.330;2024-02-28T10:11:53;41.92;;;28.17;;
11524;SDS011;5819;49.648;8.330;2024-02-28T10:14:21;38.58;;;27.08;;
11524;SDS011;5819;49.648;8.330;2024-02-28T10:16:48;37.25;;;26.58;;
11524;SDS011;5819;49.648;8.330;2024-02-28T10:19:18;37.45;;;26.98;;
11524;SDS011;5819;49.648;8.330;2024-02-28T10:21:47;37.90;;;27.23;;
11524;SDS011;5819;49.648;8.330;2024-02-28T10:24:15;35.70;;;25.58;;
11524;SDS011;5819;49.648;8.330;2024-02-28T10:26:43;40.97;;;27.50;;
11524;SDS011;5819;49.648;8.330;2024-02-28T10:29:12;36.40;;;25.42;;
11524;SDS011;5819;49.648;8.330;2024-02-28T10:31:41;34.42;;;26.45;;
11524;SDS011;5819;49.648;8.330;2024-02-28T10:34:09;35.75;;;26.38;;
11524;SDS011;5819;49.648;8.330;2024-02-28T10:36:37;32.42;;;24.80;;
11524;SDS011;5819;49.648;8.330;2024-02-28T10:39:07;35.55;;;24.85;;
11524;SDS011;5819;49.648;8.330;2024-02-28T10:41:37;34.47;;;25.75;;
11524;SDS011;5819;49.648;8.330;2024-02-28T10:44:05;35.13;;;27.10;;
11524;SDS011;5819;49.648;8.330;2024-02-28T10:46:33;34.63;;;24.63;;
11524;SDS011;5819;49.648;8.330;2024-02-28T10:49:04;33.35;;;25.95;;
11524;SDS011;5819;49.648;8.330;2024-02-28T10:51:33;36.55;;;26.05;;
11524;SDS011;5819;49.648;8.330;2024-02-28T10:54:07;35.63;;;25.33;;
11524;SDS011;5819;49.648;8.330;2024-02-28T10:56:39;32.22;;;24.17;;
11524;SDS011;5819;49.648;8.330;2024-02-28T10:59:08;31.92;;;24.25;;
11524;SDS011;5819;49.648;8.330;2024-02-28T11:01:38;33.40;;;23.92;;
11524;SDS011;5819;49.648;8.330;2024-02-28T11:04:10;33.58;;;25.23;;
11524;SDS011;5819;49.648;8.330;2024-02-28T11:06:47;34.75;;;26.17;;
11524;SDS011;5819;49.648;8.330;2024-02-28T11:09:23;34.38;;;25.17;;
11524;SDS011;5819;49.648;8.330;2024-02-28T11:11:53;37.05;;;26.42;;
11524;SDS011;5819;49.648;8.330;2024-02-28T11:14:23;35.45;;;25.23;;
11524;SDS011;5819;49.648;8.330;2024-02-28T11:17:00;33.53;;;24.75;;
11524;SDS011;5819;49.648;8.330;2024-02-28T11:19:28;33.63;;;24.33;;
11524;SDS011;5819;49.648;8.330;2024-02-28T11:21:57;32.55;;;24.13;;
11524;SDS011;5819;49.648;8.330;2024-02-28T11:24:32;28.90;;;22.88;;
11524;SDS011;5819;49.648;8.330;2024-02-28T11:27:04;29.65;;;23.80;;
11524;SDS011;5819;49.648;8.330;2024-02-28T11:29:33;30.38;;;22.92;;
11524;SDS011;5819;49.648;8.330;2024-02-28T11:32:02;32.13;;;25.10;;
11524;SDS011;5819;49.648;8.330;2024-02-28T11:34:31;31.20;;;23.95;;
11524;SDS011;5819;49.648;8.330;2024-02-28T11:36:59;32.95;;;25.15;;
11524;SDS011;5819;49.648;8.330;2024-02-28T11:39:27;32.72;;;24.90;;
11524;SDS011;5819;49.648;8.330;2024-02-28T11:42:09;30.63;;;24.08;;
11524;SDS011;5819;49.648;8.330;2024-02-28T11:44:39;31.98;;;23.48;;
11524;SDS011;5819;49.648;8.330;2024-02-28T11:47:08;31.33;;;23.83;;
11524;SDS011;5819;49.648;8.330;2024-02-28T11:49:38;32.35;;;24.00;;
11524;SDS011;5819;49.648;8.330;2024-02-28T11:52:06;36.20;;;28.05;;
11524;SDS011;5819;49.648;8.330;2024-02-28T11:54:33;46.78;;;33.97;;
11524;SDS011;5819;49.648;8.330;2024-02-28T11:57:02;28.58;;;21.65;;
11524;SDS011;5819;49.648;8.330;2024-02-28T11:59:32;24.85;;;19.17;;
11524;SDS011;5819;49.648;8.330;2024-02-28T12:02:00;27.85;;;20.50;;
11524;SDS011;5819;49.648;8.330;2024-02-28T12:04:28;26.63;;;20.70;;
11524;SDS011;5819;49.648;8.330;2024-02-28T12:06:57;25.75;;;19.42;;
11524;SDS011;5819;49.648;8.330;2024-02-28T12:09:25;26.27;;;21.27;;
11524;SDS011;5819;49.648;8.330;2024-02-28T12:11:59;27.33;;;22.17;;
11524;SDS011;5819;49.648;8.330;2024-02-28T12:14:28;30.40;;;22.08;;
11524;SDS011;5819;49.648;8.330;2024-02-28T12:16:59;27.38;;;21.88;;
11524;SDS011;5819;49.648;8.330;2024-02-28T12:19:29;23.05;;;18.83;;
11524;SDS011;5819;49.648;8.330;2024-02-28T12:21:56;22.60;;;19.42;;
11524;SDS011;5819;49.648;8.330;2024-02-28T12:24:26;28.25;;;21.95;;
11524;SDS011;5819;49.648;8.330;2024-02-28T12:26:54;24.55;;;20.00;;
11524;SDS011;5819;49.648;8.330;2024-02-28T12:29:22;24.38;;;19.50;;
11524;SDS011;5819;49.648;8.330;2024-02-28T12:31:50;29.65;;;21.88;;
11524;SDS011;5819;49.648;8.330;2024-02-28T12:34:19;23.83;;;18.48;;
11524;SDS011;5819;49.648;8.330;2024-02-28T12:36:49;21.90;;;17.63;;
11524;SDS011;5819;49.648;8.330;2024-02-28T12:39:17;22.52;;;17.80;;
11524;SDS011;5819;49.648;8.330;2024-02-28T12:41:45;23.40;;;17.58;;
11524;SDS011;5819;49.648;8.330;2024-02-28T12:44:15;21.20;;;16.20;;
11524;SDS011;5819;49.648;8.330;2024-02-28T12:46:43;23.15;;;16.02;;
11524;SDS011;5819;49.648;8.330;2024-02-28T12:49:11;19.80;;;16.08;;
11524;SDS011;5819;49.648;8.330;2024-02-28T12:51:41;19.17;;;15.88;;
11524;SDS011;5819;49.648;8.330;2024-02-28T12:54:11;18.38;;;14.80;;
11524;SDS011;5819;49.648;8.330;2024-02-28T12:56:41;20.83;;;17.02;;
11524;SDS011;5819;49.648;8.330;2024-02-28T12:59:10;21.88;;;17.55;;
11524;SDS011;5819;49.648;8.330;2024-02-28T13:01:39;19.58;;;16.25;;
11524;SDS011;5819;49.648;8.330;2024-02-28T13:04:07;20.60;;;16.30;;
11524;SDS011;5819;49.648;8.330;2024-02-28T13:06:35;21.10;;;16.50;;
11524;SDS011;5819;49.648;8.330;2024-02-28T13:09:04;20.45;;;16.60;;
11524;SDS011;5819;49.648;8.330;2024-02-28T13:11:39;20.20;;;16.35;;
11524;SDS011;5819;49.648;8.330;2024-02-28T13:14:07;19.10;;;15.52;;
11524;SDS011;5819;49.648;8.330;2024-02-28T13:16:35;18.13;;;15.80;;
11524;SDS011;5819;49.648;8.330;2024-02-28T13:19:04;18.35;;;15.40;;
11524;SDS011;5819;49.648;8.330;2024-02-28T13:21:32;21.15;;;16.75;;
11524;SDS011;5819;49.648;8.330;2024-02-28T13:24:01;19.48;;;16.10;;
11524;SDS011;5819;49.648;8.330;2024-02-28T13:26:31;19.83;;;16.40;;
11524;SDS011;5819;49.648;8.330;2024-02-28T13:28:58;19.85;;;15.15;;
11524;SDS011;5819;49.648;8.330;2024-02-28T13:31:26;17.90;;;14.50;;
11524;SDS011;5819;49.648;8.330;2024-02-28T13:33:54;17.73;;;14.77;;
11524;SDS011;5819;49.648;8.330;2024-02-28T13:36:22;18.38;;;14.75;;
11524;SDS011;5819;49.648;8.330;2024-02-28T13:38:51;17.48;;;14.07;;
11524;SDS011;5819;49.648;8.330;2024-02-28T13:41:19;18.13;;;14.35;;
11524;SDS011;5819;49.648;8.330;2024-02-28T13:43:48;17.25;;;14.27;;
11524;SDS011;5819;49.648;8.330;2024-02-28T13:46:16;16.02;;;13.43;;
11524;SDS011;5819;49.648;8.330;2024-02-28T13:48:46;19.38;;;15.55;;
11524;SDS011;5819;49.648;8.330;2024-02-28T13:51:14;18.55;;;14.45;;
11524;SDS011;5819;49.648;8.330;2024-02-28T13:53:42;21.52;;;16.75;;
11524;SDS011;5819;49.648;8.330;2024-02-28T13:56:10;23.02;;;17.27;;
11524;SDS011;5819;49.648;8.330;2024-02-28T13:58:38;19.92;;;16.25;;
11524;SDS011;5819;49.648;8.330;2024-02-28T14:01:19;20.42;;;15.30;;
11524;SDS011;5819;49.648;8.330;2024-02-28T14:03:48;16.40;;;14.30;;
11524;SDS011;5819;49.648;8.330;2024-02-28T14:06:16;17.58;;;14.98;;
11524;SDS011;5819;49.648;8.330;2024-02-28T14:08:44;17.17;;;14.13;;
11524;SDS011;5819;49.648;8.330;2024-02-28T14:11:12;20.52;;;16.08;;
11524;SDS011;5819;49.648;8.330;2024-02-28T14:13:43;18.98;;;14.88;;
11524;SDS011;5819;49.648;8.330;2024-02-28T14:16:11;19.52;;;15.55;;
11524;SDS011;5819;49.648;8.330;2024-02-28T14:18:41;17.73;;;14.73;;
11524;SDS011;5819;49.648;8.330;2024-02-28T14:21:09;18.45;;;15.38;;
11524;SDS011;5819;49.648;8.330;2024-02-28T14:23:37;17.30;;;13.60;;
11524;SDS011;5819;49.648;8.330;2024-02-28T14:26:05;15.63;;;12.93;;
11524;SDS011;5819;49.648;8.330;2024-02-28T14:28:33;16.75;;;13.20;;
11524;SDS011;5819;49.648;8.330;2024-02-28T14:31:01;17.13;;;13.65;;
11524;SDS011;5819;49.648;8.330;2024-02-28T14:33:30;16.40;;;13.38;;
11524;SDS011;5819;49.648;8.330;2024-02-28T14:35:59;24.13;;;19.13;;
11524;SDS011;5819;49.648;8.330;2024-02-28T14:38:30;22.73;;;17.05;;
11524;SDS011;5819;49.648;8.330;2024-02-28T14:40:58;19.08;;;14.30;;
11524;SDS011;5819;49.648;8.330;2024-02-28T14:43:26;14.98;;;12.70;;